createdAt,value
2018-12-13T00:00:47.511Z,101785.58
2018-12-13T00:09:26.438Z,101781.31
2018-12-13T00:11:56.526Z,101787.38
2018-12-13T00:14:26.644Z,101784.92
2018-12-13T00:16:56.684Z,101782.45
2018-12-13T00:19:26.902Z,101780.38
2018-12-13T00:21:57.022Z,101779.84
2018-12-13T00:24:27.114Z,101779.52
2018-12-13T00:26:57.249Z,101779.65
2018-12-13T00:29:27.295Z,101785.13
2018-12-13T00:31:57.381Z,101780.05
2018-12-13T00:34:27.420Z,101775.64
2018-12-13T00:36:58.533Z,101783.32
2018-12-13T00:39:28.621Z,101779.25
2018-12-13T00:41:58.694Z,101777.91
2018-12-13T00:44:28.754Z,101774.44
2018-12-13T00:46:58.850Z,101775.31
2018-12-13T00:49:28.932Z,101775.51
2018-12-13T00:51:59.065Z,101779.70
2018-12-13T00:54:29.095Z,101777.78
2018-12-13T00:56:59.132Z,101782.92
2018-12-13T00:59:29.200Z,101785.05
2018-12-13T01:01:59.421Z,101788.17
2018-12-13T01:04:29.526Z,101788.72
2018-12-13T01:06:59.641Z,101783.23
2018-12-13T01:09:29.722Z,101781.18
2018-12-13T01:11:59.867Z,101784.45
2018-12-13T01:14:29.925Z,101784.78
2018-12-13T01:17:00.099Z,101782.52
2018-12-13T01:19:30.176Z,101787.05
2018-12-13T01:22:00.248Z,101784.84
2018-12-13T01:24:30.345Z,101784.98
2018-12-13T01:27:00.441Z,101784.05
2018-12-13T01:29:30.499Z,101782.31
2018-12-13T01:32:00.674Z,101777.38
2018-12-13T01:34:30.724Z,101772.30
2018-12-13T01:37:00.785Z,101780.31
2018-12-13T01:39:30.849Z,101781.84
2018-12-13T01:42:01.015Z,101788.59
2018-12-13T01:44:31.072Z,101786.13
2018-12-13T01:47:01.197Z,101790.00
2018-12-13T01:49:31.285Z,101785.52
2018-12-13T01:52:01.410Z,101788.66
2018-12-13T01:54:31.511Z,101783.17
2018-12-13T01:57:01.605Z,101783.38
2018-12-13T01:59:31.663Z,101785.19
2018-12-13T02:02:01.687Z,101784.98
2018-12-13T02:04:31.725Z,101784.32
2018-12-13T02:07:01.916Z,101784.19
2018-12-13T02:09:32.047Z,101784.12
2018-12-13T02:12:02.189Z,101787.25
2018-12-13T02:14:33.380Z,101782.12
2018-12-13T02:17:03.540Z,101780.78
2018-12-13T02:19:33.668Z,101780.58
2018-12-13T02:22:03.845Z,101782.85
2018-12-13T02:24:33.893Z,101784.12
2018-12-13T02:27:03.977Z,101776.78
2018-12-13T02:29:34.033Z,101771.50
2018-12-13T02:32:04.228Z,101782.98
2018-12-13T02:34:34.342Z,101777.91
2018-12-13T02:37:06.159Z,101783.12
2018-12-13T02:39:36.632Z,101783.25
2018-12-13T02:42:06.682Z,101777.31
2018-12-13T02:44:36.871Z,101776.44
2018-12-13T02:47:06.936Z,101777.78
2018-12-13T02:49:37.084Z,101784.39
2018-12-13T02:52:07.126Z,101781.25
2018-12-13T02:54:37.233Z,101778.84
2018-12-13T02:57:07.249Z,101772.97
2018-12-13T02:59:37.369Z,101778.78
2018-12-13T03:02:07.438Z,101777.52
2018-12-13T03:04:38.675Z,101772.97
2018-12-13T03:07:13.557Z,101770.37
2018-12-13T03:09:41.002Z,101771.38
2018-12-13T03:12:11.052Z,101766.96
2018-12-13T03:14:41.109Z,101762.95
2018-12-13T03:17:11.186Z,101766.70
2018-12-13T03:19:41.312Z,101767.62
2018-12-13T03:22:11.511Z,101767.62
2018-12-13T03:24:41.577Z,101769.90
2018-12-13T03:27:11.639Z,101766.83
2018-12-13T03:29:41.842Z,101765.56
2018-12-13T03:32:11.921Z,101765.77
2018-12-13T03:34:42.062Z,101759.48
2018-12-13T03:37:12.233Z,101770.17
2018-12-13T03:39:42.229Z,101763.70
2018-12-13T03:42:12.394Z,101766.16
2018-12-13T03:44:42.461Z,101761.89
2018-12-13T03:47:12.597Z,101763.70
2018-12-13T03:49:42.751Z,101762.09
2018-12-13T03:52:12.875Z,101759.49
2018-12-13T03:54:43.019Z,101754.22
2018-12-13T03:57:13.190Z,101765.63
2018-12-13T03:59:43.311Z,101759.22
2018-12-13T04:02:13.374Z,101757.02
2018-12-13T04:04:43.512Z,101761.63
2018-12-13T04:07:13.538Z,101758.42
2018-12-13T04:09:44.699Z,101761.03
2018-12-13T04:12:14.753Z,101762.48
2018-12-13T04:14:44.872Z,101755.48
2018-12-13T04:17:14.952Z,101753.28
2018-12-13T04:19:47.009Z,101754.88
2018-12-13T04:22:17.048Z,101756.95
2018-12-13T04:24:47.120Z,101757.69
2018-12-13T04:27:17.198Z,101749.01
2018-12-13T04:29:47.326Z,101752.02
2018-12-13T04:32:17.409Z,101745.55
2018-12-13T04:34:47.470Z,101751.34
2018-12-13T04:37:17.530Z,101750.34
2018-12-13T04:39:47.849Z,101744.94
2018-12-13T04:42:17.889Z,101744.88
2018-12-13T04:44:48.521Z,101745.73
2018-12-13T04:47:18.668Z,101741.60
2018-12-13T04:49:48.784Z,101739.80
2018-12-13T04:52:18.858Z,101743.60
2018-12-13T04:54:48.961Z,101738.80
2018-12-13T04:57:19.082Z,101745.34
2018-12-13T04:59:49.125Z,101739.80
2018-12-13T05:02:19.188Z,101743.27
2018-12-13T05:04:49.258Z,101742.54
2018-12-13T05:07:19.347Z,101743.00
2018-12-13T05:09:49.430Z,101743.00
2018-12-13T05:12:19.482Z,101739.66
2018-12-13T05:14:49.528Z,101738.06
2018-12-13T05:17:19.626Z,101744.61
2018-12-13T05:19:49.691Z,101734.27
2018-12-13T05:22:19.847Z,101741.73
2018-12-13T05:24:49.938Z,101738.73
2018-12-13T05:27:20.017Z,101739.33
2018-12-13T05:29:50.070Z,101741.27
2018-12-13T05:32:20.111Z,101744.14
2018-12-13T05:34:50.202Z,101738.66
2018-12-13T05:37:20.257Z,101738.59
2018-12-13T05:39:50.319Z,101741.87
2018-12-13T05:42:20.358Z,101739.00
2018-12-13T05:44:50.943Z,101740.27
2018-12-13T05:47:20.982Z,101737.00
2018-12-13T05:49:51.077Z,101736.86
2018-12-13T05:52:21.161Z,101733.94
2018-12-13T05:54:51.627Z,101737.27
2018-12-13T05:57:22.008Z,101740.75
2018-12-13T05:59:52.097Z,101742.33
2018-12-13T06:02:22.127Z,101746.92
2018-12-13T06:04:52.210Z,101746.66
2018-12-13T06:07:22.396Z,101744.84
2018-12-13T06:09:52.730Z,101748.65
2018-12-13T06:12:22.882Z,101747.00
2018-12-13T06:14:52.937Z,101745.61
2018-12-13T06:17:23.034Z,101745.54
2018-12-13T06:19:53.111Z,101746.27
2018-12-13T06:22:23.144Z,101745.94
2018-12-13T06:24:53.182Z,101749.06
2018-12-13T06:27:23.248Z,101748.66
2018-12-13T06:29:58.632Z,101751.47
2018-12-13T06:32:25.469Z,101744.66
2018-12-13T06:34:55.516Z,101755.20
2018-12-13T06:37:25.602Z,101756.88
2018-12-13T06:39:55.833Z,101757.33
2018-12-13T06:42:25.841Z,101762.98
2018-12-13T06:44:55.914Z,101766.54
2018-12-13T06:47:26.032Z,101772.52
2018-12-13T06:49:56.095Z,101770.48
2018-12-13T06:52:26.228Z,101766.46
2018-12-13T06:54:56.309Z,101760.59
2018-12-13T06:57:26.395Z,101764.12
2018-12-13T06:59:56.476Z,101761.86
2018-12-13T07:02:26.533Z,101766.52
2018-12-13T07:04:56.593Z,101766.00
2018-12-13T07:07:26.718Z,101764.59
2018-12-13T07:09:57.380Z,101771.61
2018-12-13T07:12:27.485Z,101764.39
2018-12-13T07:14:57.562Z,101768.33
2018-12-13T07:17:27.701Z,101770.40
2018-12-13T07:19:57.772Z,101764.00
2018-12-13T07:22:28.036Z,101771.02
2018-12-13T07:24:58.178Z,101773.09
2018-12-13T07:27:28.247Z,101761.80
2018-12-13T07:29:58.489Z,101773.89
2018-12-13T07:32:28.513Z,101771.27
2018-12-13T07:35:01.479Z,101774.55
2018-12-13T07:37:31.582Z,101771.09
2018-12-13T07:40:03.391Z,101776.81
2018-12-13T07:42:34.258Z,101775.63
2018-12-13T07:45:04.489Z,101777.77
2018-12-13T07:47:38.286Z,101779.09
2018-12-13T07:50:08.786Z,101775.36
2018-12-13T07:52:38.914Z,101777.38
2018-12-13T07:55:08.970Z,101774.50
2018-12-13T07:57:39.028Z,101786.04
2018-12-13T08:00:09.699Z,101778.58
2018-12-13T08:02:39.774Z,101783.38
2018-12-13T08:05:09.831Z,101779.71
2018-12-13T08:07:40.023Z,101779.31
2018-12-13T08:10:10.021Z,101776.30
2018-12-13T08:12:40.118Z,101776.70
2018-12-13T08:15:10.593Z,101774.36
2018-12-13T08:17:40.718Z,101775.10
2018-12-13T08:20:12.858Z,101776.24
2018-12-13T08:22:42.926Z,101775.24
2018-12-13T08:25:12.958Z,101777.84
2018-12-13T08:27:43.057Z,101776.97
2018-12-13T08:30:13.126Z,101779.51
2018-12-13T08:32:43.220Z,101775.24
2018-12-13T08:35:13.346Z,101776.50
2018-12-13T08:37:43.395Z,101780.31
2018-12-13T08:40:13.467Z,101776.24
2018-12-13T08:42:43.608Z,101781.24
2018-12-13T08:45:13.674Z,101776.03
2018-12-13T08:47:43.767Z,101782.45
2018-12-13T08:50:13.813Z,101780.44
2018-12-13T08:52:43.877Z,101776.84
2018-12-13T08:55:13.899Z,101785.52
2018-12-13T08:57:43.933Z,101778.91
2018-12-13T09:00:14.007Z,101784.72
2018-12-13T09:02:44.149Z,101781.52
2018-12-13T09:05:14.203Z,101777.91
2018-12-13T09:07:44.321Z,101778.65
2018-12-13T09:10:14.383Z,101775.77
2018-12-13T09:12:44.526Z,101775.91
2018-12-13T09:15:14.588Z,101773.64
2018-12-13T09:17:44.811Z,101775.31
2018-12-13T09:20:14.876Z,101770.30
2018-12-13T09:22:44.948Z,101769.16
2018-12-13T09:25:14.996Z,101765.09
2018-12-13T09:27:45.093Z,101767.77
2018-12-13T09:30:16.601Z,101771.91
2018-12-13T09:32:47.341Z,101767.37
2018-12-13T09:35:17.377Z,101767.50
2018-12-13T09:37:47.888Z,101770.17
2018-12-13T09:40:18.969Z,101761.09
2018-12-13T09:42:49.025Z,101756.95
2018-12-13T09:45:19.413Z,101761.48
2018-12-13T09:47:49.611Z,101764.56
2018-12-13T09:50:19.847Z,101755.75
2018-12-13T09:52:49.914Z,101755.87
2018-12-13T09:55:19.953Z,101753.87
2018-12-13T09:57:50.189Z,101752.67
2018-12-13T10:00:20.983Z,101750.41
2018-12-13T10:02:51.042Z,101745.20
2018-12-13T10:05:21.156Z,101744.47
2018-12-13T10:07:51.430Z,101744.94
2018-12-13T10:10:21.526Z,101748.27
2018-12-13T10:12:52.732Z,101742.53
2018-12-13T10:15:22.776Z,101744.14
2018-12-13T10:17:52.841Z,101736.92
2018-12-13T10:20:22.897Z,101734.39
2018-12-13T10:22:52.925Z,101727.72
2018-12-13T10:25:23.120Z,101734.79
2018-12-13T10:27:53.135Z,101734.85
2018-12-13T10:30:23.169Z,101736.52
2018-12-13T10:32:53.243Z,101727.45
2018-12-13T10:35:23.253Z,101718.58
2018-12-13T10:37:53.378Z,101722.11
2018-12-13T10:40:23.419Z,101722.11
2018-12-13T10:42:54.876Z,101716.52
2018-12-13T10:45:24.918Z,101714.30
2018-12-13T10:47:55.008Z,101715.30
2018-12-13T10:50:25.116Z,101709.09
2018-12-13T10:52:56.133Z,101703.89
2018-12-13T10:55:26.150Z,101705.77
2018-12-13T10:57:56.241Z,101710.17
2018-12-13T11:00:31.422Z,101704.64
2018-12-13T11:03:17.968Z,101707.77
2018-12-13T11:05:47.997Z,101710.77
2018-12-13T11:08:18.086Z,101705.97
2018-12-13T11:10:48.148Z,101707.10
2018-12-13T11:13:18.307Z,101707.97
2018-12-13T11:15:48.341Z,101706.50
2018-12-13T11:18:18.413Z,101707.37
2018-12-13T11:20:48.455Z,101709.11
2018-12-13T11:23:18.568Z,101712.11
2018-12-13T11:25:48.624Z,101700.77
2018-12-13T11:28:29.918Z,101714.24
2018-12-13T11:30:59.990Z,101712.38
2018-12-13T11:33:30.107Z,101708.37
2018-12-13T11:36:01.288Z,101713.51
2018-12-13T11:38:31.492Z,101713.77
2018-12-13T11:41:01.515Z,101709.50
2018-12-13T11:43:31.649Z,101710.77
2018-12-13T11:46:01.825Z,101708.44
2018-12-13T11:48:31.901Z,101710.70
2018-12-13T11:51:01.980Z,101709.57
2018-12-13T11:53:32.193Z,101709.10
2018-12-13T11:56:02.362Z,101713.38
2018-12-13T11:58:32.452Z,101710.58
2018-12-13T12:01:02.533Z,101712.38
2018-12-13T12:03:33.619Z,101711.11
2018-12-13T12:06:04.245Z,101721.25
2018-12-13T12:08:34.369Z,101707.70
2018-12-13T12:11:04.496Z,101707.23
2018-12-13T12:13:34.516Z,101712.38
2018-12-13T12:16:04.674Z,101705.16
2018-12-13T12:18:34.716Z,101706.30
2018-12-13T12:21:04.882Z,101705.97
2018-12-13T12:23:34.919Z,101706.10
2018-12-13T12:26:05.043Z,101702.43
2018-12-13T12:28:35.161Z,101701.95
2018-12-13T12:31:06.001Z,101698.97
2018-12-13T12:33:36.123Z,101696.09
2018-12-13T12:36:06.197Z,101697.16
2018-12-13T12:38:36.310Z,101699.76
2018-12-13T12:41:06.477Z,101698.95
2018-12-13T12:43:36.548Z,101697.72
2018-12-13T12:46:06.692Z,101693.45
2018-12-13T12:48:36.789Z,101693.98
2018-12-13T12:51:06.865Z,101694.91
2018-12-13T12:53:36.946Z,101695.05
2018-12-13T12:56:07.121Z,101690.52
2018-12-13T12:58:37.192Z,101693.58
2018-12-13T13:01:07.423Z,101690.30
2018-12-13T13:03:37.546Z,101700.63
2018-12-13T13:06:07.691Z,101698.24
2018-12-13T13:08:37.765Z,101695.63
2018-12-13T13:11:07.879Z,101699.96
2018-12-13T13:13:37.985Z,101699.69
2018-12-13T13:16:08.086Z,101699.30
2018-12-13T13:18:39.152Z,101696.77
2018-12-13T13:21:09.490Z,101700.63
2018-12-13T13:23:39.753Z,101695.33
2018-12-13T13:26:09.910Z,101698.53
2018-12-13T13:28:39.977Z,101699.12
2018-12-13T13:31:10.111Z,101695.62
2018-12-13T13:33:40.293Z,101700.02
2018-12-13T13:36:10.413Z,101699.55
2018-12-13T13:38:40.481Z,101698.97
2018-12-13T13:41:10.662Z,101703.64
2018-12-13T13:43:40.872Z,101697.36
2018-12-13T13:46:10.927Z,101700.83
2018-12-13T13:48:41.025Z,101706.03
2018-12-13T13:51:11.130Z,101706.84
2018-12-13T13:53:41.197Z,101705.04
2018-12-13T13:56:11.463Z,101706.69
2018-12-13T13:58:42.278Z,101709.31
2018-12-13T14:01:13.187Z,101708.81
2018-12-13T14:03:44.311Z,101697.00
2018-12-13T14:06:15.767Z,101704.29
2018-12-13T14:08:46.954Z,101705.03
2018-12-13T14:11:17.741Z,101702.77
2018-12-13T14:13:51.178Z,101709.78
2018-12-13T14:16:21.828Z,101708.73
2018-12-13T14:18:53.478Z,101708.00
2018-12-13T14:21:24.317Z,101708.88
2018-12-13T14:23:54.967Z,101713.47
2018-12-13T14:26:29.547Z,101717.28
2018-12-13T14:28:59.969Z,101718.24
2018-12-13T14:31:36.674Z,101713.03
2018-12-13T14:34:06.732Z,101723.41
2018-12-13T14:36:36.948Z,101716.44
2018-12-13T14:39:08.527Z,101708.33
2018-12-13T14:41:40.658Z,101711.48
2018-12-13T14:44:14.574Z,101716.28
2018-12-13T14:46:44.665Z,101718.24
2018-12-13T14:49:14.796Z,101716.73
2018-12-13T14:51:46.547Z,101721.41
2018-12-13T14:54:21.675Z,101718.50
2018-12-13T14:56:52.423Z,101717.75
2018-12-13T14:59:23.138Z,101718.03
2018-12-13T15:01:53.383Z,101721.34
2018-12-13T15:04:23.613Z,101717.49
2018-12-13T15:06:54.045Z,101715.95
2018-12-13T15:09:24.565Z,101720.88
2018-12-13T15:11:54.944Z,101719.81
2018-12-13T15:14:25.068Z,101726.92
2018-12-13T15:16:55.074Z,101720.81
2018-12-13T15:19:25.166Z,101725.98
2018-12-13T15:21:55.279Z,101729.06
2018-12-13T15:24:25.410Z,101732.13
2018-12-13T15:26:55.574Z,101729.04
2018-12-13T15:29:25.777Z,101733.27
2018-12-13T15:31:59.490Z,101729.59
2018-12-13T15:34:29.721Z,101730.92
2018-12-13T15:36:59.791Z,101729.47
2018-12-13T15:39:29.942Z,101732.59
2018-12-13T15:42:00.005Z,101733.83
2018-12-13T15:44:30.626Z,101734.23
2018-12-13T15:47:00.811Z,101725.98
2018-12-13T15:49:31.497Z,101729.50
2018-12-13T15:52:01.693Z,101733.16
2018-12-13T15:54:31.829Z,101734.73
2018-12-13T15:57:02.085Z,101737.74
2018-12-13T15:59:32.329Z,101733.59
2018-12-13T16:02:02.627Z,101730.77
2018-12-13T16:04:33.698Z,101740.72
2018-12-13T16:07:03.851Z,101738.23
2018-12-13T16:09:34.048Z,101739.34
2018-12-13T16:12:04.375Z,101737.39
2018-12-13T16:14:34.549Z,101729.22
2018-12-13T16:17:04.819Z,101724.73
2018-12-13T16:19:35.046Z,101722.84
2018-12-13T16:22:05.205Z,101719.84
2018-12-13T16:24:35.329Z,101720.95
2018-12-13T16:27:05.429Z,101720.36
2018-12-13T16:29:35.572Z,101722.64
2018-12-13T16:32:05.829Z,101725.00
2018-12-13T16:34:36.053Z,101728.53
2018-12-13T16:37:06.197Z,101719.41
2018-12-13T16:39:36.308Z,101721.19
2018-12-13T16:42:06.419Z,101726.16
2018-12-13T16:44:36.489Z,101728.96
2018-12-13T16:47:06.541Z,101729.19
2018-12-13T16:49:36.872Z,101731.14
2018-12-13T16:52:07.082Z,101735.64
2018-12-13T16:54:37.168Z,101740.31
2018-12-13T16:57:07.223Z,101731.86
2018-12-13T16:59:37.315Z,101734.77
2018-12-13T17:02:07.978Z,101731.04
2018-12-13T17:04:43.020Z,101725.28
2018-12-13T17:07:13.557Z,101730.43
2018-12-13T17:09:46.337Z,101731.30
2018-12-13T17:12:16.592Z,101735.02
2018-12-13T17:14:46.804Z,101733.22
2018-12-13T17:17:16.835Z,101732.80
2018-12-13T17:19:50.844Z,101732.16
2018-12-13T17:22:23.098Z,101728.23
2018-12-13T17:24:53.713Z,101727.53
2018-12-13T17:27:23.963Z,101730.96
2018-12-13T17:29:54.309Z,101729.52
2018-12-13T17:32:26.065Z,101724.34
2018-12-13T17:34:56.573Z,101731.36
2018-12-13T17:37:27.325Z,101732.17
2018-12-13T17:39:57.720Z,101735.71
2018-12-13T17:42:28.059Z,101729.84
2018-12-13T17:44:58.811Z,101727.63
2018-12-13T17:47:29.028Z,101731.70
2018-12-13T17:49:59.534Z,101732.75
2018-12-13T17:52:29.809Z,101733.11
2018-12-13T17:55:00.697Z,101732.34
2018-12-13T17:57:31.335Z,101727.93
2018-12-13T18:00:01.741Z,101727.19
2018-12-13T18:02:33.152Z,101727.36
2018-12-13T18:05:03.426Z,101734.59
2018-12-13T18:07:33.625Z,101727.72
2018-12-13T18:10:04.701Z,101725.97
2018-12-13T18:12:34.960Z,101727.59
2018-12-13T18:15:05.249Z,101729.00
2018-12-13T18:17:42.058Z,101732.28
2018-12-13T18:20:12.347Z,101732.91
2018-12-13T18:22:43.811Z,101730.88
2018-12-13T18:25:14.005Z,101734.06
2018-12-13T18:27:44.639Z,101734.70
2018-12-13T18:30:14.884Z,101738.06
2018-12-13T18:32:50.079Z,101741.81
2018-12-13T18:35:20.341Z,101746.97
2018-12-13T18:37:50.657Z,101747.08
2018-12-13T18:40:20.780Z,101750.53
2018-12-13T18:42:50.976Z,101750.25
2018-12-13T18:45:23.735Z,101753.67
2018-12-13T18:47:53.901Z,101754.66
2018-12-13T18:50:24.068Z,101765.01
2018-12-13T18:52:54.213Z,101763.75
2018-12-13T18:55:25.484Z,101760.27
2018-12-13T18:57:55.743Z,101763.75
2018-12-13T19:00:27.239Z,101756.28
2018-12-13T19:02:57.671Z,101763.05
2018-12-13T19:05:28.090Z,101758.92
2018-12-13T19:07:58.271Z,101759.17
2018-12-13T19:10:28.663Z,101757.00
2018-12-13T19:12:59.044Z,101760.77
2018-12-13T19:15:29.291Z,101754.45
2018-12-13T19:17:59.502Z,101757.84
2018-12-13T19:20:29.738Z,101766.83
2018-12-13T19:22:59.986Z,101761.91
2018-12-13T19:25:30.041Z,101759.73
2018-12-13T19:28:01.031Z,101755.23
2018-12-13T19:30:31.211Z,101766.59
2018-12-13T19:33:01.538Z,101762.70
2018-12-13T19:35:31.856Z,101765.77
2018-12-13T19:38:01.973Z,101768.70
2018-12-13T19:40:32.219Z,101770.77
2018-12-13T19:43:02.665Z,101768.98
2018-12-13T19:45:33.530Z,101768.02
2018-12-13T19:48:07.901Z,101770.44
2018-12-13T19:50:38.457Z,101771.61
2018-12-13T19:53:08.974Z,101770.38
2018-12-13T19:55:39.105Z,101768.54
2018-12-13T19:58:09.162Z,101773.64
2018-12-13T20:00:39.309Z,101775.41
2018-12-13T20:03:09.459Z,101774.64
2018-12-13T20:05:39.727Z,101776.84
2018-12-13T20:08:09.914Z,101779.80
2018-12-13T20:10:40.046Z,101773.77
2018-12-13T20:13:10.448Z,101783.59
2018-12-13T20:15:40.633Z,101776.72
2018-12-13T20:18:11.794Z,101778.23
2018-12-13T20:20:43.159Z,101783.13
2018-12-13T20:23:13.332Z,101777.91
2018-12-13T20:25:43.565Z,101783.09
2018-12-13T20:28:13.701Z,101781.98
2018-12-13T20:30:43.990Z,101788.88
2018-12-13T20:33:15.586Z,101792.80
2018-12-13T20:35:45.951Z,101791.52
2018-12-13T20:38:16.222Z,101787.63
2018-12-13T20:40:46.288Z,101788.45
2018-12-13T20:43:18.231Z,101782.25
2018-12-13T20:45:49.254Z,101787.80
2018-12-13T20:48:19.477Z,101780.11
2018-12-13T20:50:50.003Z,101779.00
2018-12-13T20:53:20.249Z,101783.31
2018-12-13T20:55:50.397Z,101785.75
2018-12-13T20:58:23.565Z,101790.27
2018-12-13T21:00:53.879Z,101790.67
2018-12-13T21:03:25.113Z,101792.28
2018-12-13T21:05:55.242Z,101786.78
2018-12-13T21:08:25.419Z,101789.67
2018-12-13T21:10:55.849Z,101787.94
2018-12-13T21:13:26.043Z,101794.80
2018-12-13T21:15:56.150Z,101796.27
2018-12-13T21:18:26.396Z,101789.97
2018-12-13T21:20:56.569Z,101793.66
2018-12-13T21:23:26.819Z,101795.02
2018-12-13T21:25:57.199Z,101790.42
2018-12-13T21:28:27.397Z,101796.79
2018-12-13T21:30:58.682Z,101797.30
2018-12-13T21:33:28.864Z,101793.77
2018-12-13T21:35:59.070Z,101790.81
2018-12-13T21:38:29.211Z,101787.31
2018-12-13T21:41:02.602Z,101790.81
2018-12-13T21:43:32.832Z,101787.66
2018-12-13T21:46:04.088Z,101792.77
2018-12-13T21:48:34.191Z,101780.84
2018-12-13T21:51:04.387Z,101783.05
2018-12-13T21:53:34.704Z,101792.14
2018-12-13T21:56:06.293Z,101787.14
2018-12-13T21:58:36.446Z,101789.48
2018-12-13T22:01:09.355Z,101792.52
2018-12-13T22:03:39.579Z,101793.55
2018-12-13T22:06:09.975Z,101798.94
2018-12-13T22:08:41.334Z,101794.59
2018-12-13T22:11:11.712Z,101799.50
2018-12-13T22:13:42.009Z,101793.53
2018-12-13T22:16:12.210Z,101794.56
2018-12-13T22:18:42.585Z,101792.06
2018-12-13T22:21:12.973Z,101792.58
2018-12-13T22:23:43.081Z,101786.73
2018-12-13T22:26:13.415Z,101789.02
2018-12-13T22:31:26.555Z,101785.38
2018-12-13T22:33:56.712Z,101789.37
2018-12-13T22:36:26.898Z,101784.45
2018-12-13T22:39:01.265Z,101790.16
2018-12-13T22:41:32.768Z,101784.31
2018-12-13T22:44:03.014Z,101792.83
2018-12-13T22:46:33.254Z,101787.48
2018-12-13T22:49:03.446Z,101783.36
2018-12-13T22:51:33.654Z,101787.01
2018-12-13T22:54:03.979Z,101787.89
2018-12-13T22:56:34.240Z,101794.26
2018-12-13T22:59:04.556Z,101798.36
2018-12-13T23:01:34.749Z,101797.25
2018-12-13T23:04:05.079Z,101799.17
2018-12-13T23:06:35.279Z,101806.19
2018-12-13T23:09:07.050Z,101804.47
2018-12-13T23:11:39.623Z,101806.26
2018-12-13T23:14:09.772Z,101802.32
2018-12-13T23:16:39.894Z,101807.13
2018-12-13T23:19:10.066Z,101807.13
2018-12-13T23:21:40.191Z,101802.48
2018-12-13T23:24:10.379Z,101805.09
2018-12-13T23:26:40.643Z,101814.41
2018-12-13T23:29:11.139Z,101805.20
2018-12-13T23:31:41.285Z,101806.64
2018-12-13T23:34:11.399Z,101808.52
2018-12-13T23:36:41.521Z,101809.67
2018-12-13T23:39:11.633Z,101810.55
2018-12-13T23:41:41.811Z,101817.31
2018-12-13T23:44:12.082Z,101814.14
2018-12-13T23:46:42.646Z,101814.77
2018-12-13T23:49:12.894Z,101823.75
2018-12-13T23:51:43.178Z,101818.58
2018-12-13T23:54:13.292Z,101823.11
2018-12-13T23:56:43.637Z,101821.77
2018-12-13T23:59:14.997Z,101821.83
